Flight Track Log - Related Links

Times and Time Zones

All times are in EDT time to prevent confusion due to time zone crossing. See the JZA7807 flight status page for this flight to view local times or setup timezone preferences in your user account.

Time Position Orientation Groundspeed Altitude Reporting Facility
EDT Latitude Longitude Course Direction KTS MPH feet Rate Location/Type
Sun 10:15:26 AM 43.6667 -79.6167 90° East 10 12 600  Level Toronto Center
Sun 10:16:26 AM 43.6667 -79.5833 90° East 30 35 600  Level Toronto Center
Sun 10:18:17 AM 43.6667 -79.6167 270° West 30 35 600  Level Toronto Center
Sun 10:20:17 AM 43.6833 -79.6167 360° North 10 12 600  Level Toronto Center
Sun 10:23:17 AM 43.6833 -79.6167 36° Northeast 40 46 600  Level Toronto Center
Sun 10:24:17 AM 43.6833 -79.6167 36° Northeast 10 12 600 236 Level Toronto Center
Sun 10:27:00 AM 43.7705 -79.6457 346° North  Level FlightAware Approximate
Sun 10:33:27 AM 43.7000 -79.6833 313° West 150 173 3,000  Level Toronto Center
Sun 10:34:00 AM 44.1315 -79.7000 North  Level FlightAware Approximate
Sun 10:34:27 AM 43.7500 -79.7000 346° North 160 184 4,100  Level Toronto Center
Sun 10:35:00 AM 44.1970 -79.7167 North  Level FlightAware Approximate
Sun 10:35:27 AM 43.8000 -79.7000 360° North 190 219 4,900  Level Toronto Center
Sun 10:36:00 AM 44.2636 -79.7231 351° North  Level FlightAware Approximate
Sun 10:36:27 AM 43.8500 -79.7000 360° North 210 242 5,600  Level Toronto Center
Sun 10:37:00 AM 44.3298 -79.7373 351° North  Level FlightAware Approximate
Sun 10:37:27 AM 43.9167 -79.7000 360° North 210 242 6,600  Level Toronto Center
Sun 10:38:27 AM 43.9667 -79.7000 360° North 200 230 7,600 1,000 Climbing Toronto Center
Sun 10:39:27 AM 44.0333 -79.7333 340° North 200 230 8,600 950 Climbing Toronto Center
Sun 10:40:27 AM 44.0833 -79.7333 360° North 190 219 9,500 867 Climbing Toronto Center
Sun 10:42:27 AM 44.1833 -79.7500 353° North 190 219 11,200 867 Climbing Toronto Center
Sun 10:43:27 AM 44.2333 -79.7667 347° North 190 219 12,100 900 Climbing Toronto Center
Sun 10:44:27 AM 44.2833 -79.8000 334° Northwest 190 219 13,000 900 Climbing Toronto Center
Sun 10:45:27 AM 44.3333 -79.8167 347° North 190 219 13,900 900 Climbing Toronto Center
Sun 10:46:27 AM 44.3833 -79.8500 335° Northwest 190 219 14,800 900 Climbing Toronto Center
Sun 10:47:27 AM 44.4333 -79.8667 347° North 200 230 15,700 600 Climbing Toronto Center
Sun 10:48:27 AM 44.5000 -79.8833 350° North 200 230 16,000 150 Climbing Toronto Center
Sun 10:49:27 AM 44.5500 -79.9167 335° Northwest 220 253 16,000  Level Toronto Center
Sun 10:50:27 AM 44.6167 -79.9333 350° North 230 265 16,000  Level Toronto Center
Sun 10:51:27 AM 44.6833 -79.9667 340° North 240 276 16,000  Level Toronto Center
Sun 10:52:27 AM 44.7500 -79.9833 350° North 240 276 16,000 67 Level Toronto Center
Sun 10:54:27 AM 44.8667 -80.0333 343° North 230 265 16,200 67 Climbing Toronto Center
Sun 10:55:27 AM 44.9333 -80.0500 350° North 240 276 16,200  Level Toronto Center
Sun 10:56:27 AM 45.0000 -80.0833 341° North 240 276 16,200  Level Toronto Center
Sun 10:57:27 AM 45.0667 -80.1333 332° Northwest 240 276 16,200 -50 Level Toronto Center
Sun 10:58:27 AM 45.1333 -80.1500 350° North 240 276 16,100 -50 Descending Toronto Center
Sun 10:59:27 AM 45.2000 -80.1833 341° North 240 276 16,100  Level Toronto Center
Sun 11:00:27 AM 45.2500 -80.2000 347° North 240 276 16,100  Level Toronto Center
Sun 11:01:27 AM 45.3167 -80.2333 341° North 240 276 16,100  Level Toronto Center
Sun 11:02:27 AM 45.3833 -80.2500 350° North 240 276 16,100  Level Toronto Center
Sun 11:03:27 AM 45.4500 -80.2667 350° North 240 276 16,100  Level Toronto Center
Sun 11:04:27 AM 45.5167 -80.3000 341° North 240 276 16,100 -150 Level Toronto Center
Sun 11:05:27 AM 45.5667 -80.3167 347° North 240 276 15,800 -500 Descending Toronto Center
Sun 11:06:27 AM 45.6333 -80.3667 332° Northwest 250 288 15,100 -800 Descending Toronto Center
Sun 11:07:27 AM 45.7167 -80.4000 344° North 260 299 14,200 -1,050 Descending Toronto Center
Sun 11:08:27 AM 45.7833 -80.4167 350° North 270 311 13,000 -1,150 Descending Toronto Center
Sun 11:09:27 AM 45.8500 -80.4500 341° North 280 322 11,900 -1,150 Descending Toronto Center
Sun 11:10:27 AM 45.9333 -80.4667 352° North 280 322 10,700 -1,150 Descending Toronto Center
Sun 11:11:27 AM 46.0000 -80.5167 332° Northwest 280 322 9,600 -1,000 Descending Toronto Center
Sun 11:12:27 AM 46.0833 -80.5500 344° North 270 311 8,700 -950 Descending Toronto Center
Sun 11:13:27 AM 46.1500 -80.5667 350° North 270 311 7,700 -900 Descending Toronto Center
Sun 11:14:27 AM 46.2167 -80.6167 333° Northwest 270 311 6,900 -750 Descending Toronto Center
Sun 11:15:27 AM 46.3000 -80.6500 345° North 270 311 6,200 -650 Descending Toronto Center
Sun 11:16:27 AM 46.3667 -80.6667 350° North 260 299 5,600 -800 Descending Toronto Center
Sun 11:17:27 AM 46.4333 -80.7000 341° North 270 311 4,600 -950 Descending Toronto Center
Sun 11:18:27 AM 46.5167 -80.7167 352° North 270 311 3,700 -850 Descending Toronto Center
Sun 11:19:27 AM 46.5833 -80.7167 360° North 260 299 2,900 -700 Descending Toronto Center
Sun 11:20:27 AM 46.6333 -80.7167 360° North 200 230 2,300 -600 Descending Toronto Center
Sun 11:21:27 AM 46.6500 -80.7667 296° West 130 150 1,700 -600 Descending Toronto Center

Login

Don't have an account? Register now (free) for customized features, flight alerts, and more!